sensor_id;sensor_type;location;lat;lon;timestamp;P1;durP1;ratioP1;P2;durP2;ratioP2
79122;SDS011;68526;44.600;26.032;2023-04-25T00:00:15;8.77;;;6.90;;
79122;SDS011;68526;44.600;26.032;2023-04-25T00:00:32;10.35;;;7.38;;
79122;SDS011;68526;44.600;26.032;2023-04-25T00:00:48;10.95;;;7.47;;
79122;SDS011;68526;44.600;26.032;2023-04-25T00:01:04;9.88;;;7.30;;
79122;SDS011;68526;44.600;26.032;2023-04-25T00:01:20;10.05;;;7.55;;
79122;SDS011;68526;44.600;26.032;2023-04-25T00:01:36;10.20;;;7.55;;
79122;SDS011;68526;44.600;26.032;2023-04-25T00:01:52;9.65;;;7.05;;
79122;SDS011;68526;44.600;26.032;2023-04-25T00:02:10;10.23;;;7.10;;
79122;SDS011;68526;44.600;26.032;2023-04-25T00:02:27;10.33;;;7.00;;
79122;SDS011;68526;44.600;26.032;2023-04-25T00:02:43;11.40;;;7.00;;
79122;SDS011;68526;44.600;26.032;2023-04-25T00:02:59;11.55;;;7.07;;
79122;SDS011;68526;44.600;26.032;2023-04-25T00:03:15;11.10;;;6.97;;
79122;SDS011;68526;44.600;26.032;2023-04-25T00:03:33;10.50;;;6.97;;
79122;SDS011;68526;44.600;26.032;2023-04-25T00:03:50;9.57;;;6.95;;
79122;SDS011;68526;44.600;26.032;2023-04-25T00:04:06;8.20;;;6.72;;
79122;SDS011;68526;44.600;26.032;2023-04-25T00:04:22;8.38;;;6.40;;
79122;SDS011;68526;44.600;26.032;2023-04-25T00:04:38;8.88;;;7.00;;
79122;SDS011;68526;44.600;26.032;2023-04-25T00:04:54;8.18;;;7.10;;
79122;SDS011;68526;44.600;26.032;2023-04-25T00:05:13;9.02;;;6.88;;
79122;SDS011;68526;44.600;26.032;2023-04-25T00:05:31;9.07;;;7.03;;
79122;SDS011;68526;44.600;26.032;2023-04-25T00:05:47;9.23;;;7.07;;
79122;SDS011;68526;44.600;26.032;2023-04-25T00:06:04;10.30;;;6.90;;
79122;SDS011;68526;44.600;26.032;2023-04-25T00:06:20;9.38;;;6.40;;
79122;SDS011;68526;44.600;26.032;2023-04-25T00:06:36;8.55;;;6.53;;
79122;SDS011;68526;44.600;26.032;2023-04-25T00:06:53;8.52;;;6.82;;
79122;SDS011;68526;44.600;26.032;2023-04-25T00:07:09;8.88;;;6.85;;
79122;SDS011;68526;44.600;26.032;2023-04-25T00:07:25;8.38;;;6.68;;
79122;SDS011;68526;44.600;26.032;2023-04-25T00:07:41;8.30;;;6.35;;
79122;SDS011;68526;44.600;26.032;2023-04-25T00:07:57;8.57;;;6.40;;
79122;SDS011;68526;44.600;26.032;2023-04-25T00:08:13;8.85;;;6.68;;
79122;SDS011;68526;44.600;26.032;2023-04-25T00:08:30;9.23;;;6.70;;
79122;SDS011;68526;44.600;26.032;2023-04-25T00:08:47;8.65;;;6.60;;
79122;SDS011;68526;44.600;26.032;2023-04-25T00:09:04;9.02;;;6.45;;
79122;SDS011;68526;44.600;26.032;2023-04-25T00:09:22;9.50;;;6.63;;
79122;SDS011;68526;44.600;26.032;2023-04-25T00:09:38;8.98;;;6.80;;
79122;SDS011;68526;44.600;26.032;2023-04-25T00:09:55;8.05;;;6.80;;
79122;SDS011;68526;44.600;26.032;2023-04-25T00:10:11;7.88;;;6.50;;
79122;SDS011;68526;44.600;26.032;2023-04-25T00:10:27;8.20;;;6.32;;
79122;SDS011;68526;44.600;26.032;2023-04-25T00:10:43;8.80;;;6.80;;
79122;SDS011;68526;44.600;26.032;2023-04-25T00:11:00;10.10;;;6.82;;
79122;SDS011;68526;44.600;26.032;2023-04-25T00:11:16;9.90;;;6.30;;
79122;SDS011;68526;44.600;26.032;2023-04-25T00:11:32;10.70;;;6.43;;
79122;SDS011;68526;44.600;26.032;2023-04-25T00:11:48;10.43;;;6.35;;
79122;SDS011;68526;44.600;26.032;2023-04-25T00:12:04;10.10;;;6.28;;
79122;SDS011;68526;44.600;26.032;2023-04-25T00:12:20;10.18;;;6.25;;
79122;SDS011;68526;44.600;26.032;2023-04-25T00:12:38;11.95;;;6.47;;
79122;SDS011;68526;44.600;26.032;2023-04-25T00:12:54;11.70;;;6.63;;
79122;SDS011;68526;44.600;26.032;2023-04-25T00:13:10;11.85;;;6.90;;
79122;SDS011;68526;44.600;26.032;2023-04-25T00:13:26;10.40;;;6.85;;
79122;SDS011;68526;44.600;26.032;2023-04-25T00:13:42;9.77;;;6.40;;
79122;SDS011;68526;44.600;26.032;2023-04-25T00:13:58;9.35;;;6.25;;
79122;SDS011;68526;44.600;26.032;2023-04-25T00:14:14;9.60;;;6.43;;
79122;SDS011;68526;44.600;26.032;2023-04-25T00:14:31;11.48;;;6.35;;
79122;SDS011;68526;44.600;26.032;2023-04-25T00:14:49;11.43;;;6.68;;
79122;SDS011;68526;44.600;26.032;2023-04-25T00:15:05;9.13;;;6.50;;
79122;SDS011;68526;44.600;26.032;2023-04-25T00:15:22;7.75;;;6.47;;
79122;SDS011;68526;44.600;26.032;2023-04-25T00:15:38;10.93;;;6.50;;
79122;SDS011;68526;44.600;26.032;2023-04-25T00:15:54;11.02;;;6.57;;
79122;SDS011;68526;44.600;26.032;2023-04-25T00:16:11;9.13;;;6.88;;
79122;SDS011;68526;44.600;26.032;2023-04-25T00:16:29;10.20;;;6.50;;
79122;SDS011;68526;44.600;26.032;2023-04-25T00:16:48;9.07;;;6.18;;
79122;SDS011;68526;44.600;26.032;2023-04-25T00:17:06;9.38;;;6.55;;
79122;SDS011;68526;44.600;26.032;2023-04-25T00:17:24;8.90;;;6.50;;
79122;SDS011;68526;44.600;26.032;2023-04-25T00:17:41;9.57;;;6.65;;
79122;SDS011;68526;44.600;26.032;2023-04-25T00:17:57;9.90;;;6.80;;
79122;SDS011;68526;44.600;26.032;2023-04-25T00:18:13;9.68;;;6.72;;
79122;SDS011;68526;44.600;26.032;2023-04-25T00:18:29;8.32;;;6.28;;
79122;SDS011;68526;44.600;26.032;2023-04-25T00:18:45;7.65;;;6.00;;
79122;SDS011;68526;44.600;26.032;2023-04-25T00:19:06;9.80;;;6.20;;
79122;SDS011;68526;44.600;26.032;2023-04-25T00:19:22;9.82;;;6.43;;
79122;SDS011;68526;44.600;26.032;2023-04-25T00:19:39;11.02;;;6.75;;
79122;SDS011;68526;44.600;26.032;2023-04-25T00:19:55;11.57;;;6.80;;
79122;SDS011;68526;44.600;26.032;2023-04-25T00:20:13;10.52;;;6.85;;
79122;SDS011;68526;44.600;26.032;2023-04-25T00:20:29;8.88;;;6.47;;
79122;SDS011;68526;44.600;26.032;2023-04-25T00:20:45;8.57;;;6.23;;
79122;SDS011;68526;44.600;26.032;2023-04-25T00:21:01;9.75;;;6.55;;
79122;SDS011;68526;44.600;26.032;2023-04-25T00:21:21;10.43;;;6.65;;
79122;SDS011;68526;44.600;26.032;2023-04-25T00:21:39;10.27;;;6.75;;
79122;SDS011;68526;44.600;26.032;2023-04-25T00:21:55;10.20;;;6.60;;
79122;SDS011;68526;44.600;26.032;2023-04-25T00:22:11;9.52;;;6.38;;
79122;SDS011;68526;44.600;26.032;2023-04-25T00:22:27;8.73;;;6.43;;
79122;SDS011;68526;44.600;26.032;2023-04-25T00:22:44;8.85;;;6.35;;
79122;SDS011;68526;44.600;26.032;2023-04-25T00:23:00;8.20;;;6.20;;
79122;SDS011;68526;44.600;26.032;2023-04-25T00:23:16;7.63;;;6.03;;
79122;SDS011;68526;44.600;26.032;2023-04-25T00:23:33;7.90;;;6.30;;
79122;SDS011;68526;44.600;26.032;2023-04-25T00:23:52;8.73;;;6.72;;
79122;SDS011;68526;44.600;26.032;2023-04-25T00:24:09;9.57;;;6.80;;
79122;SDS011;68526;44.600;26.032;2023-04-25T00:24:25;8.70;;;6.70;;
79122;SDS011;68526;44.600;26.032;2023-04-25T00:24:40;8.40;;;6.70;;
79122;SDS011;68526;44.600;26.032;2023-04-25T00:24:56;9.23;;;6.57;;
79122;SDS011;68526;44.600;26.032;2023-04-25T00:25:15;9.05;;;6.47;;
79122;SDS011;68526;44.600;26.032;2023-04-25T00:25:31;9.00;;;6.30;;
79122;SDS011;68526;44.600;26.032;2023-04-25T00:25:48;9.02;;;6.40;;
79122;SDS011;68526;44.600;26.032;2023-04-25T00:26:05;9.20;;;6.45;;
79122;SDS011;68526;44.600;26.032;2023-04-25T00:26:20;9.27;;;6.40;;
79122;SDS011;68526;44.600;26.032;2023-04-25T00:26:36;9.45;;;6.40;;
79122;SDS011;68526;44.600;26.032;2023-04-25T00:26:52;10.95;;;6.53;;
79122;SDS011;68526;44.600;26.032;2023-04-25T00:27:09;11.60;;;6.35;;
79122;SDS011;68526;44.600;26.032;2023-04-25T00:27:25;9.93;;;6.28;;
79122;SDS011;68526;44.600;26.032;2023-04-25T00:27:41;9.77;;;6.70;;
79122;SDS011;68526;44.600;26.032;2023-04-25T00:27:57;9.88;;;6.68;;
79122;SDS011;68526;44.600;26.032;2023-04-25T00:28:14;9.73;;;6.47;;
79122;SDS011;68526;44.600;26.032;2023-04-25T00:28:30;10.60;;;6.55;;
79122;SDS011;68526;44.600;26.032;2023-04-25T00:28:46;10.87;;;6.83;;
79122;SDS011;68526;44.600;26.032;2023-04-25T00:29:02;9.38;;;6.88;;
79122;SDS011;68526;44.600;26.032;2023-04-25T00:29:18;8.60;;;6.32;;
79122;SDS011;68526;44.600;26.032;2023-04-25T00:29:34;8.23;;;6.30;;
79122;SDS011;68526;44.600;26.032;2023-04-25T00:29:51;8.98;;;6.70;;
79122;SDS011;68526;44.600;26.032;2023-04-25T00:30:07;11.05;;;6.55;;
79122;SDS011;68526;44.600;26.032;2023-04-25T00:30:24;10.00;;;6.47;;
79122;SDS011;68526;44.600;26.032;2023-04-25T00:30:40;9.45;;;6.50;;
79122;SDS011;68526;44.600;26.032;2023-04-25T00:30:56;10.02;;;6.30;;
79122;SDS011;68526;44.600;26.032;2023-04-25T00:31:12;10.52;;;6.38;;
79122;SDS011;68526;44.600;26.032;2023-04-25T00:31:29;10.20;;;6.75;;
79122;SDS011;68526;44.600;26.032;2023-04-25T00:31:45;9.90;;;6.57;;
79122;SDS011;68526;44.600;26.032;2023-04-25T00:32:01;9.30;;;6.40;;
79122;SDS011;68526;44.600;26.032;2023-04-25T00:32:17;9.32;;;6.55;;
79122;SDS011;68526;44.600;26.032;2023-04-25T00:32:34;9.07;;;6.25;;
79122;SDS011;68526;44.600;26.032;2023-04-25T00:32:51;10.57;;;6.40;;
79122;SDS011;68526;44.600;26.032;2023-04-25T00:33:07;12.02;;;6.30;;
79122;SDS011;68526;44.600;26.032;2023-04-25T00:33:23;10.50;;;6.25;;
79122;SDS011;68526;44.600;26.032;2023-04-25T00:33:39;9.45;;;6.38;;
79122;SDS011;68526;44.600;26.032;2023-04-25T00:33:55;10.00;;;6.50;;
79122;SDS011;68526;44.600;26.032;2023-04-25T00:34:11;9.75;;;6.32;;
79122;SDS011;68526;44.600;26.032;2023-04-25T00:34:28;9.82;;;6.40;;
79122;SDS011;68526;44.600;26.032;2023-04-25T00:34:43;9.35;;;6.95;;
79122;SDS011;68526;44.600;26.032;2023-04-25T00:34:59;9.50;;;6.70;;
79122;SDS011;68526;44.600;26.032;2023-04-25T00:35:15;11.32;;;6.53;;
79122;SDS011;68526;44.600;26.032;2023-04-25T00:35:31;10.55;;;6.45;;
79122;SDS011;68526;44.600;26.032;2023-04-25T00:35:47;8.57;;;6.30;;
79122;SDS011;68526;44.600;26.032;2023-04-25T00:36:04;9.35;;;6.07;;
79122;SDS011;68526;44.600;26.032;2023-04-25T00:36:21;9.77;;;6.30;;
79122;SDS011;68526;44.600;26.032;2023-04-25T00:36:37;8.82;;;6.32;;
79122;SDS011;68526;44.600;26.032;2023-04-25T00:36:53;8.23;;;6.30;;
79122;SDS011;68526;44.600;26.032;2023-04-25T00:37:09;8.55;;;6.45;;
79122;SDS011;68526;44.600;26.032;2023-04-25T00:37:25;9.10;;;6.20;;
79122;SDS011;68526;44.600;26.032;2023-04-25T00:37:42;10.00;;;6.22;;
79122;SDS011;68526;44.600;26.032;2023-04-25T00:37:58;7.50;;;6.20;;
79122;SDS011;68526;44.600;26.032;2023-04-25T00:38:14;9.18;;;6.50;;
79122;SDS011;68526;44.600;26.032;2023-04-25T00:38:30;11.18;;;6.88;;
79122;SDS011;68526;44.600;26.032;2023-04-25T00:38:47;9.75;;;6.82;;
79122;SDS011;68526;44.600;26.032;2023-04-25T00:39:02;9.25;;;6.75;;
79122;SDS011;68526;44.600;26.032;2023-04-25T00:39:20;11.30;;;6.50;;
79122;SDS011;68526;44.600;26.032;2023-04-25T00:39:35;8.93;;;6.18;;
79122;SDS011;68526;44.600;26.032;2023-04-25T00:39:51;6.63;;;5.90;;
79122;SDS011;68526;44.600;26.032;2023-04-25T00:40:10;8.52;;;6.20;;
79122;SDS011;68526;44.600;26.032;2023-04-25T00:40:26;11.30;;;6.75;;
79122;SDS011;68526;44.600;26.032;2023-04-25T00:40:42;10.82;;;6.75;;
79122;SDS011;68526;44.600;26.032;2023-04-25T00:40:59;10.02;;;6.72;;
79122;SDS011;68526;44.600;26.032;2023-04-25T00:41:15;10.65;;;6.97;;
79122;SDS011;68526;44.600;26.032;2023-04-25T00:41:31;10.40;;;6.78;;
79122;SDS011;68526;44.600;26.032;2023-04-25T00:41:48;9.52;;;6.43;;
79122;SDS011;68526;44.600;26.032;2023-04-25T00:42:08;9.25;;;6.50;;
79122;SDS011;68526;44.600;26.032;2023-04-25T00:42:25;8.60;;;6.25;;
79122;SDS011;68526;44.600;26.032;2023-04-25T00:42:41;9.10;;;6.28;;
79122;SDS011;68526;44.600;26.032;2023-04-25T00:42:57;8.48;;;6.30;;
79122;SDS011;68526;44.600;26.032;2023-04-25T00:43:13;8.15;;;6.30;;
79122;SDS011;68526;44.600;26.032;2023-04-25T00:43:29;8.98;;;6.20;;
79122;SDS011;68526;44.600;26.032;2023-04-25T00:43:48;8.30;;;6.20;;
79122;SDS011;68526;44.600;26.032;2023-04-25T00:44:06;10.45;;;6.57;;
79122;SDS011;68526;44.600;26.032;2023-04-25T00:44:25;10.45;;;6.82;;
79122;SDS011;68526;44.600;26.032;2023-04-25T00:44:42;10.77;;;6.82;;
79122;SDS011;68526;44.600;26.032;2023-04-25T00:45:00;9.73;;;6.60;;
79122;SDS011;68526;44.600;26.032;2023-04-25T00:45:16;8.48;;;6.38;;
79122;SDS011;68526;44.600;26.032;2023-04-25T00:45:33;8.00;;;6.30;;
79122;SDS011;68526;44.600;26.032;2023-04-25T00:45:54;10.75;;;6.35;;
79122;SDS011;68526;44.600;26.032;2023-04-25T00:46:12;10.60;;;6.10;;
79122;SDS011;68526;44.600;26.032;2023-04-25T00:46:28;9.68;;;6.22;;
79122;SDS011;68526;44.600;26.032;2023-04-25T00:46:46;8.80;;;6.20;;
79122;SDS011;68526;44.600;26.032;2023-04-25T00:47:03;9.25;;;6.45;;
79122;SDS011;68526;44.600;26.032;2023-04-25T00:47:20;8.82;;;6.75;;
79122;SDS011;68526;44.600;26.032;2023-04-25T00:47:37;7.40;;;6.57;;
79122;SDS011;68526;44.600;26.032;2023-04-25T00:47:53;8.65;;;6.50;;
79122;SDS011;68526;44.600;26.032;2023-04-25T00:48:09;9.70;;;6.80;;
79122;SDS011;68526;44.600;26.032;2023-04-25T00:48:27;10.15;;;6.93;;
79122;SDS011;68526;44.600;26.032;2023-04-25T00:48:43;10.45;;;6.63;;
79122;SDS011;68526;44.600;26.032;2023-04-25T00:48:59;9.18;;;6.40;;
79122;SDS011;68526;44.600;26.032;2023-04-25T00:49:14;8.70;;;6.30;;
79122;SDS011;68526;44.600;26.032;2023-04-25T00:49:32;8.98;;;6.50;;
79122;SDS011;68526;44.600;26.032;2023-04-25T00:49:47;10.13;;;6.45;;
79122;SDS011;68526;44.600;26.032;2023-04-25T00:50:05;9.55;;;6.40;;
79122;SDS011;68526;44.600;26.032;2023-04-25T00:50:22;8.90;;;6.55;;
79122;SDS011;68526;44.600;26.032;2023-04-25T00:50:38;10.43;;;6.57;;
79122;SDS011;68526;44.600;26.032;2023-04-25T00:50:54;8.82;;;6.30;;
79122;SDS011;68526;44.600;26.032;2023-04-25T00:51:13;8.52;;;6.50;;
79122;SDS011;68526;44.600;26.032;2023-04-25T00:51:33;10.52;;;6.65;;
79122;SDS011;68526;44.600;26.032;2023-04-25T00:51:49;10.85;;;6.78;;
79122;SDS011;68526;44.600;26.032;2023-04-25T00:52:05;11.73;;;6.70;;
79122;SDS011;68526;44.600;26.032;2023-04-25T00:52:21;11.93;;;6.88;;
79122;SDS011;68526;44.600;26.032;2023-04-25T00:52:37;10.20;;;6.70;;
79122;SDS011;68526;44.600;26.032;2023-04-25T00:52:55;8.68;;;6.68;;
79122;SDS011;68526;44.600;26.032;2023-04-25T00:53:12;8.43;;;6.50;;
79122;SDS011;68526;44.600;26.032;2023-04-25T00:53:28;8.30;;;6.53;;
79122;SDS011;68526;44.600;26.032;2023-04-25T00:53:47;11.20;;;6.90;;
79122;SDS011;68526;44.600;26.032;2023-04-25T00:54:04;11.45;;;6.38;;
79122;SDS011;68526;44.600;26.032;2023-04-25T00:54:20;9.43;;;6.47;;
79122;SDS011;68526;44.600;26.032;2023-04-25T00:54:37;7.93;;;6.43;;
79122;SDS011;68526;44.600;26.032;2023-04-25T00:54:53;9.02;;;6.20;;
79122;SDS011;68526;44.600;26.032;2023-04-25T00:55:10;10.48;;;6.35;;
79122;SDS011;68526;44.600;26.032;2023-04-25T00:55:27;11.32;;;6.75;;
79122;SDS011;68526;44.600;26.032;2023-04-25T00:55:44;12.20;;;6.93;;
79122;SDS011;68526;44.600;26.032;2023-04-25T00:56:01;11.18;;;7.10;;
79122;SDS011;68526;44.600;26.032;2023-04-25T00:56:17;9.45;;;7.03;;
79122;SDS011;68526;44.600;26.032;2023-04-25T00:56:33;10.07;;;6.70;;
79122;SDS011;68526;44.600;26.032;2023-04-25T00:56:49;10.32;;;6.55;;
79122;SDS011;68526;44.600;26.032;2023-04-25T00:57:05;9.63;;;6.60;;
79122;SDS011;68526;44.600;26.032;2023-04-25T00:57:22;9.43;;;6.20;;
79122;SDS011;68526;44.600;26.032;2023-04-25T00:57:38;9.55;;;6.47;;
79122;SDS011;68526;44.600;26.032;2023-04-25T00:57:54;12.10;;;6.88;;
79122;SDS011;68526;44.600;26.032;2023-04-25T00:58:10;12.70;;;6.50;;
79122;SDS011;68526;44.600;26.032;2023-04-25T00:58:26;10.70;;;6.55;;
79122;SDS011;68526;44.600;26.032;2023-04-25T00:58:42;9.50;;;7.15;;
79122;SDS011;68526;44.600;26.032;2023-04-25T00:58:59;9.25;;;6.93;;
79122;SDS011;68526;44.600;26.032;2023-04-25T00:59:15;10.57;;;6.60;;
79122;SDS011;68526;44.600;26.032;2023-04-25T00:59:32;10.02;;;6.60;;
79122;SDS011;68526;44.600;26.032;2023-04-25T00:59:49;9.10;;;6.50;;
79122;SDS011;68526;44.600;26.032;2023-04-25T01:00:07;8.73;;;6.35;;
79122;SDS011;68526;44.600;26.032;2023-04-25T01:00:26;9.55;;;6.53;;
79122;SDS011;68526;44.600;26.032;2023-04-25T01:00:41;10.57;;;6.95;;
79122;SDS011;68526;44.600;26.032;2023-04-25T01:00:58;10.00;;;6.55;;
79122;SDS011;68526;44.600;26.032;2023-04-25T01:01:15;9.50;;;6.60;;
79122;SDS011;68526;44.600;26.032;2023-04-25T01:01:31;11.10;;;7.07;;
79122;SDS011;68526;44.600;26.032;2023-04-25T01:01:48;10.10;;;6.97;;
79122;SDS011;68526;44.600;26.032;2023-04-25T01:02:04;9.32;;;6.82;;
79122;SDS011;68526;44.600;26.032;2023-04-25T01:02:22;11.55;;;6.63;;
79122;SDS011;68526;44.600;26.032;2023-04-25T01:02:39;10.02;;;6.63;;
79122;SDS011;68526;44.600;26.032;2023-04-25T01:02:56;8.48;;;6.32;;
79122;SDS011;68526;44.600;26.032;2023-04-25T01:03:12;9.27;;;6.45;;
79122;SDS011;68526;44.600;26.032;2023-04-25T01:03:28;10.32;;;6.40;;
79122;SDS011;68526;44.600;26.032;2023-04-25T01:03:47;12.15;;;6.70;;
79122;SDS011;68526;44.600;26.032;2023-04-25T01:04:06;12.05;;;6.78;;
79122;SDS011;68526;44.600;26.032;2023-04-25T01:04:22;9.88;;;6.78;;
79122;SDS011;68526;44.600;26.032;2023-04-25T01:04:38;10.07;;;6.88;;
79122;SDS011;68526;44.600;26.032;2023-04-25T01:04:54;9.98;;;6.90;;
79122;SDS011;68526;44.600;26.032;2023-04-25T01:05:10;9.95;;;6.82;;
79122;SDS011;68526;44.600;26.032;2023-04-25T01:05:28;9.18;;;6.55;;
79122;SDS011;68526;44.600;26.032;2023-04-25T01:05:45;9.50;;;6.30;;
79122;SDS011;68526;44.600;26.032;2023-04-25T01:06:01;10.13;;;6.38;;
79122;SDS011;68526;44.600;26.032;2023-04-25T01:06:17;9.20;;;6.35;;
79122;SDS011;68526;44.600;26.032;2023-04-25T01:06:34;10.43;;;6.68;;
79122;SDS011;68526;44.600;26.032;2023-04-25T01:06:50;10.25;;;6.72;;
79122;SDS011;68526;44.600;26.032;2023-04-25T01:07:07;9.63;;;6.18;;
79122;SDS011;68526;44.600;26.032;2023-04-25T01:07:25;12.57;;;6.85;;
79122;SDS011;68526;44.600;26.032;2023-04-25T01:07:41;11.38;;;7.22;;
79122;SDS011;68526;44.600;26.032;2023-04-25T01:07:57;9.47;;;6.73;;
79122;SDS011;68526;44.600;26.032;2023-04-25T01:08:14;9.43;;;6.50;;
79122;SDS011;68526;44.600;26.032;2023-04-25T01:08:30;8.93;;;6.55;;
79122;SDS011;68526;44.600;26.032;2023-04-25T01:08:47;8.95;;;6.47;;
79122;SDS011;68526;44.600;26.032;2023-04-25T01:09:04;9.93;;;6.60;;
79122;SDS011;68526;44.600;26.032;2023-04-25T01:09:20;10.13;;;6.38;;
79122;SDS011;68526;44.600;26.032;2023-04-25T01:09:37;11.48;;;6.70;;
79122;SDS011;68526;44.600;26.032;2023-04-25T01:09:53;9.80;;;6.70;;
79122;SDS011;68526;44.600;26.032;2023-04-25T01:10:09;7.70;;;6.47;;
79122;SDS011;68526;44.600;26.032;2023-04-25T01:10:26;9.55;;;6.63;;
79122;SDS011;68526;44.600;26.032;2023-04-25T01:10:42;10.18;;;6.80;;
79122;SDS011;68526;44.600;26.032;2023-04-25T01:10:58;8.75;;;6.57;;
79122;SDS011;68526;44.600;26.032;2023-04-25T01:11:14;8.48;;;6.47;;
79122;SDS011;68526;44.600;26.032;2023-04-25T01:11:30;9.88;;;6.72;;
79122;SDS011;68526;44.600;26.032;2023-04-25T01:11:46;10.57;;;6.53;;
79122;SDS011;68526;44.600;26.032;2023-04-25T01:12:03;9.07;;;6.25;;
79122;SDS011;68526;44.600;26.032;2023-04-25T01:12:19;8.45;;;6.68;;
79122;SDS011;68526;44.600;26.032;2023-04-25T01:12:36;8.02;;;6.55;;
79122;SDS011;68526;44.600;26.032;2023-04-25T01:12:52;8.55;;;6.53;;
79122;SDS011;68526;44.600;26.032;2023-04-25T01:13:08;9.45;;;6.68;;
79122;SDS011;68526;44.600;26.032;2023-04-25T01:13:23;9.98;;;6.75;;
79122;SDS011;68526;44.600;26.032;2023-04-25T01:13:40;8.65;;;6.80;;
79122;SDS011;68526;44.600;26.032;2023-04-25T01:13:56;8.13;;;6.30;;
79122;SDS011;68526;44.600;26.032;2023-04-25T01:14:12;9.38;;;6.72;;
79122;SDS011;68526;44.600;26.032;2023-04-25T01:14:28;10.57;;;7.22;;
79122;SDS011;68526;44.600;26.032;2023-04-25T01:14:45;9.07;;;6.90;;
79122;SDS011;68526;44.600;26.032;2023-04-25T01:15:01;8.25;;;6.72;;
79122;SDS011;68526;44.600;26.032;2023-04-25T01:15:18;9.93;;;6.70;;
79122;SDS011;68526;44.600;26.032;2023-04-25T01:15:34;11.88;;;6.90;;
79122;SDS011;68526;44.600;26.032;2023-04-25T01:15:51;10.82;;;7.00;;
79122;SDS011;68526;44.600;26.032;2023-04-25T01:16:07;9.75;;;7.00;;
79122;SDS011;68526;44.600;26.032;2023-04-25T01:16:23;10.45;;;6.95;;
79122;SDS011;68526;44.600;26.032;2023-04-25T01:16:40;11.18;;;6.97;;
79122;SDS011;68526;44.600;26.032;2023-04-25T01:16:56;9.95;;;6.93;;
79122;SDS011;68526;44.600;26.032;2023-04-25T01:17:15;8.70;;;7.13;;
79122;SDS011;68526;44.600;26.032;2023-04-25T01:17:33;9.70;;;6.93;;
79122;SDS011;68526;44.600;26.032;2023-04-25T01:17:51;8.85;;;6.30;;
79122;SDS011;68526;44.600;26.032;2023-04-25T01:18:08;8.82;;;6.68;;
79122;SDS011;68526;44.600;26.032;2023-04-25T01:18:25;8.95;;;6.65;;
79122;SDS011;68526;44.600;26.032;2023-04-25T01:18:41;8.20;;;6.50;;
79122;SDS011;68526;44.600;26.032;2023-04-25T01:18:57;9.18;;;6.55;;
79122;SDS011;68526;44.600;26.032;2023-04-25T01:19:15;10.95;;;6.72;;
79122;SDS011;68526;44.600;26.032;2023-04-25T01:19:33;10.55;;;6.88;;
79122;SDS011;68526;44.600;26.032;2023-04-25T01:19:49;11.03;;;6.93;;
79122;SDS011;68526;44.600;26.032;2023-04-25T01:20:06;10.65;;;6.90;;
79122;SDS011;68526;44.600;26.032;2023-04-25T01:20:24;10.52;;;6.80;;
79122;SDS011;68526;44.600;26.032;2023-04-25T01:20:42;11.18;;;6.93;;
79122;SDS011;68526;44.600;26.032;2023-04-25T01:21:02;9.63;;;6.63;;
79122;SDS011;68526;44.600;26.032;2023-04-25T01:21:22;9.55;;;6.80;;
79122;SDS011;68526;44.600;26.032;2023-04-25T01:21:41;9.23;;;6.93;;
79122;SDS011;68526;44.600;26.032;2023-04-25T01:21:58;9.80;;;6.70;;
79122;SDS011;68526;44.600;26.032;2023-04-25T01:22:15;11.15;;;6.70;;
79122;SDS011;68526;44.600;26.032;2023-04-25T01:22:31;11.27;;;6.93;;
79122;SDS011;68526;44.600;26.032;2023-04-25T01:22:47;10.05;;;7.15;;
79122;SDS011;68526;44.600;26.032;2023-04-25T01:23:03;10.18;;;6.90;;
79122;SDS011;68526;44.600;26.032;2023-04-25T01:23:19;10.32;;;6.55;;
79122;SDS011;68526;44.600;26.032;2023-04-25T01:23:36;10.02;;;6.68;;
79122;SDS011;68526;44.600;26.032;2023-04-25T01:23:53;9.43;;;6.70;;
79122;SDS011;68526;44.600;26.032;2023-04-25T01:24:10;8.27;;;6.68;;
79122;SDS011;68526;44.600;26.032;2023-04-25T01:24:26;9.48;;;6.65;;
79122;SDS011;68526;44.600;26.032;2023-04-25T01:24:42;10.93;;;6.53;;
79122;SDS011;68526;44.600;26.032;2023-04-25T01:24:58;10.88;;;6.72;;
79122;SDS011;68526;44.600;26.032;2023-04-25T01:25:16;10.40;;;6.75;;
79122;SDS011;68526;44.600;26.032;2023-04-25T01:25:32;9.35;;;6.43;;
79122;SDS011;68526;44.600;26.032;2023-04-25T01:25:49;9.40;;;6.55;;
79122;SDS011;68526;44.600;26.032;2023-04-25T01:26:05;11.03;;;6.70;;
79122;SDS011;68526;44.600;26.032;2023-04-25T01:26:22;10.75;;;6.90;;
79122;SDS011;68526;44.600;26.032;2023-04-25T01:26:39;9.70;;;7.05;;
79122;SDS011;68526;44.600;26.032;2023-04-25T01:26:59;10.38;;;7.18;;
79122;SDS011;68526;44.600;26.032;2023-04-25T01:27:16;10.05;;;7.00;;
79122;SDS011;68526;44.600;26.032;2023-04-25T01:27:33;10.35;;;6.90;;
79122;SDS011;68526;44.600;26.032;2023-04-25T01:27:49;10.45;;;6.47;;
79122;SDS011;68526;44.600;26.032;2023-04-25T01:28:05;9.98;;;6.63;;
79122;SDS011;68526;44.600;26.032;2023-04-25T01:28:22;9.93;;;7.32;;
79122;SDS011;68526;44.600;26.032;2023-04-25T01:28:39;10.27;;;7.40;;
79122;SDS011;68526;44.600;26.032;2023-04-25T01:28:56;11.47;;;7.30;;
79122;SDS011;68526;44.600;26.032;2023-04-25T01:29:13;11.82;;;7.22;;
79122;SDS011;68526;44.600;26.032;2023-04-25T01:29:29;9.70;;;6.95;;
79122;SDS011;68526;44.600;26.032;2023-04-25T01:29:47;9.52;;;6.70;;
79122;SDS011;68526;44.600;26.032;2023-04-25T01:30:03;9.88;;;6.78;;
79122;SDS011;68526;44.600;26.032;2023-04-25T01:30:21;10.45;;;7.28;;
79122;SDS011;68526;44.600;26.032;2023-04-25T01:30:36;9.77;;;7.05;;
79122;SDS011;68526;44.600;26.032;2023-04-25T01:30:54;11.07;;;6.70;;
79122;SDS011;68526;44.600;26.032;2023-04-25T01:31:12;11.18;;;6.85;;
79122;SDS011;68526;44.600;26.032;2023-04-25T01:31:28;10.97;;;7.13;;
79122;SDS011;68526;44.600;26.032;2023-04-25T01:31:45;12.45;;;7.13;;
79122;SDS011;68526;44.600;26.032;2023-04-25T01:32:01;11.40;;;6.80;;
79122;SDS011;68526;44.600;26.032;2023-04-25T01:32:18;10.43;;;6.82;;
79122;SDS011;68526;44.600;26.032;2023-04-25T01:32:35;10.57;;;6.90;;
79122;SDS011;68526;44.600;26.032;2023-04-25T01:32:53;11.18;;;7.28;;
79122;SDS011;68526;44.600;26.032;2023-04-25T01:33:11;9.60;;;7.18;;
79122;SDS011;68526;44.600;26.032;2023-04-25T01:33:29;9.70;;;6.88;;
79122;SDS011;68526;44.600;26.032;2023-04-25T01:33:45;10.38;;;7.00;;
79122;SDS011;68526;44.600;26.032;2023-04-25T01:34:02;10.07;;;7.25;;
79122;SDS011;68526;44.600;26.032;2023-04-25T01:34:18;8.80;;;7.07;;
79122;SDS011;68526;44.600;26.032;2023-04-25T01:34:34;9.52;;;6.90;;
79122;SDS011;68526;44.600;26.032;2023-04-25T01:34:49;11.68;;;7.63;;
79122;SDS011;68526;44.600;26.032;2023-04-25T01:35:06;12.13;;;7.68;;
79122;SDS011;68526;44.600;26.032;2023-04-25T01:35:24;10.15;;;7.45;;
79122;SDS011;68526;44.600;26.032;2023-04-25T01:35:41;9.43;;;7.25;;
79122;SDS011;68526;44.600;26.032;2023-04-25T01:35:57;9.95;;;7.07;;
79122;SDS011;68526;44.600;26.032;2023-04-25T01:36:14;10.10;;;7.05;;
79122;SDS011;68526;44.600;26.032;2023-04-25T01:36:30;8.88;;;7.07;;
79122;SDS011;68526;44.600;26.032;2023-04-25T01:36:47;9.82;;;7.10;;
79122;SDS011;68526;44.600;26.032;2023-04-25T01:37:05;11.07;;;6.68;;
79122;SDS011;68526;44.600;26.032;2023-04-25T01:37:21;11.00;;;6.50;;
79122;SDS011;68526;44.600;26.032;2023-04-25T01:37:37;10.65;;;6.72;;
79122;SDS011;68526;44.600;26.032;2023-04-25T01:37:53;9.85;;;6.88;;
79122;SDS011;68526;44.600;26.032;2023-04-25T01:38:09;8.80;;;7.30;;
79122;SDS011;68526;44.600;26.032;2023-04-25T01:38:25;9.88;;;7.22;;